createdAt,value
2018-06-20T00:00:11.712Z,84.43
2018-06-20T00:01:11.707Z,83.66
2018-06-20T00:02:11.712Z,83.18
2018-06-20T00:03:11.703Z,83.66
2018-06-20T00:04:11.733Z,84.43
2018-06-20T00:05:11.707Z,86.07
2018-06-20T00:06:11.708Z,84.91
2018-06-20T00:07:11.716Z,85.30
2018-06-20T00:08:11.716Z,83.70
2018-06-20T00:09:11.723Z,83.56
2018-06-20T00:10:11.726Z,84.62
2018-06-20T00:11:11.725Z,83.66
2018-06-20T00:12:11.758Z,85.00
2018-06-20T00:13:11.735Z,85.78
2018-06-20T00:14:11.738Z,83.66
2018-06-20T00:15:11.747Z,84.33
2018-06-20T00:16:11.758Z,83.80
2018-06-20T00:17:11.750Z,83.41
2018-06-20T00:18:11.757Z,85.44
2018-06-20T00:19:11.772Z,84.23
2018-06-20T00:20:11.761Z,84.05
2018-06-20T00:21:11.773Z,85.83
2018-06-20T00:22:11.759Z,85.20
2018-06-20T00:23:11.776Z,83.37
2018-06-20T00:24:11.766Z,82.64
2018-06-20T00:25:11.773Z,84.14
2018-06-20T00:26:11.781Z,84.62
2018-06-20T00:27:11.792Z,84.43
2018-06-20T00:28:11.784Z,83.12
2018-06-20T00:29:11.793Z,82.54
2018-06-20T00:30:11.785Z,84.53
2018-06-20T00:31:11.792Z,84.72
2018-06-20T00:32:11.803Z,85.74
2018-06-20T00:33:11.802Z,85.64
2018-06-20T00:34:11.798Z,85.06
2018-06-20T00:35:20.440Z,84.72
2018-06-20T00:37:05.234Z,84.53
2018-06-20T00:38:05.230Z,81.87
2018-06-20T00:39:05.227Z,82.64
2018-06-20T00:40:05.227Z,83.66
2018-06-20T00:41:05.235Z,82.83
2018-06-20T00:42:05.239Z,83.66
2018-06-20T00:43:05.245Z,84.33
2018-06-20T00:44:05.241Z,85.25
2018-06-20T00:45:05.241Z,85.74
2018-06-20T00:46:05.253Z,84.39
2018-06-20T00:47:05.258Z,85.16
2018-06-20T00:48:05.263Z,86.79
2018-06-20T00:49:05.262Z,86.60
2018-06-20T00:50:05.257Z,86.27
2018-06-20T00:51:05.265Z,85.64
2018-06-20T00:52:05.266Z,84.62
2018-06-20T00:53:05.328Z,84.87
2018-06-20T00:54:05.291Z,86.60
2018-06-20T00:55:05.273Z,86.69
2018-06-20T00:56:05.283Z,86.85
2018-06-20T00:57:05.286Z,86.89
2018-06-20T00:58:05.281Z,85.20
2018-06-20T00:59:05.307Z,84.48
2018-06-20T01:00:05.289Z,86.75
2018-06-20T01:01:05.295Z,87.52
2018-06-20T01:02:05.299Z,86.31
2018-06-20T01:03:05.302Z,86.79
2018-06-20T01:04:05.304Z,86.22
2018-06-20T01:05:05.321Z,84.43
2018-06-20T01:06:05.323Z,84.43
2018-06-20T01:07:05.315Z,83.37
2018-06-20T01:08:13.972Z,83.08
2018-06-20T01:10:07.790Z,86.51
2018-06-20T01:10:58.744Z,86.60
2018-06-20T01:11:58.926Z,86.22
2018-06-20T01:12:58.748Z,86.36
2018-06-20T01:13:58.760Z,87.81
2018-06-20T01:16:28.858Z,85.16
2018-06-20T01:17:28.442Z,84.39
2018-06-20T01:19:13.202Z,87.04
2018-06-20T01:20:13.212Z,88.00
2018-06-20T01:21:13.220Z,87.38
2018-06-20T01:22:13.224Z,86.79
2018-06-20T01:23:13.224Z,84.48
2018-06-20T01:24:13.211Z,83.85
2018-06-20T01:25:13.211Z,83.42
2018-06-20T01:26:13.212Z,84.67
2018-06-20T01:27:13.226Z,84.97
2018-06-20T01:28:13.229Z,84.23
2018-06-20T01:29:13.217Z,85.88
2018-06-20T01:30:13.234Z,85.25
2018-06-20T01:31:13.233Z,84.87
2018-06-20T01:32:13.259Z,85.78
2018-06-20T01:33:13.249Z,87.42
2018-06-20T01:34:13.246Z,86.75
2018-06-20T01:35:13.241Z,86.75
2018-06-20T01:36:13.243Z,87.86
2018-06-20T01:37:13.254Z,90.03
2018-06-20T01:38:13.252Z,87.76
2018-06-20T01:39:13.244Z,86.56
2018-06-20T01:40:13.254Z,85.54
2018-06-20T01:41:13.253Z,85.25
2018-06-20T01:42:13.261Z,87.29
2018-06-20T01:43:13.276Z,88.24
2018-06-20T01:44:22.955Z,85.78
2018-06-20T01:46:06.689Z,85.69
2018-06-20T01:47:06.661Z,85.88
2018-06-20T01:48:06.663Z,87.29
2018-06-20T01:49:15.304Z,89.45
2018-06-20T01:51:01.111Z,89.54
2018-06-20T01:52:01.074Z,89.54
2018-06-20T01:53:01.073Z,91.18
2018-06-20T01:54:01.074Z,90.70
2018-06-20T01:55:01.083Z,88.87
2018-06-20T01:56:01.081Z,89.36
2018-06-20T01:57:01.081Z,90.22
2018-06-20T01:58:01.090Z,88.92
2018-06-20T01:59:01.087Z,87.57
2018-06-20T02:00:01.092Z,87.48
2018-06-20T02:01:01.102Z,85.88
2018-06-20T02:02:01.094Z,86.61
2018-06-20T02:03:01.101Z,88.10
2018-06-20T02:04:01.098Z,89.54
2018-06-20T02:05:01.100Z,90.03
2018-06-20T02:06:01.109Z,90.84
2018-06-20T02:07:01.110Z,91.23
2018-06-20T02:08:01.108Z,91.13
2018-06-20T02:09:01.113Z,91.47
2018-06-20T02:10:01.112Z,90.60
2018-06-20T02:11:01.120Z,89.07
2018-06-20T02:12:01.120Z,90.80
2018-06-20T02:13:01.127Z,91.52
2018-06-20T02:14:01.129Z,93.30
2018-06-20T02:15:01.129Z,92.00
2018-06-20T02:16:01.122Z,89.54
2018-06-20T02:17:01.129Z,88.06
2018-06-20T02:18:01.133Z,86.80
2018-06-20T02:19:01.141Z,86.42
2018-06-20T02:20:01.137Z,86.94
2018-06-20T02:21:01.139Z,86.52
2018-06-20T02:22:01.151Z,87.29
2018-06-20T02:23:01.142Z,87.86
2018-06-20T02:24:01.157Z,86.75
2018-06-20T02:25:01.156Z,86.80
2018-06-20T02:26:01.162Z,86.65
2018-06-20T02:27:01.178Z,86.61
2018-06-20T02:28:01.154Z,88.06
2018-06-20T02:29:01.158Z,88.78
2018-06-20T02:30:01.161Z,89.16
2018-06-20T02:31:01.162Z,89.16
2018-06-20T02:32:01.169Z,89.60
2018-06-20T02:33:01.682Z,91.33
2018-06-20T02:34:01.172Z,91.71
2018-06-20T02:35:01.184Z,92.57
2018-06-20T02:36:01.182Z,93.05
2018-06-20T02:37:01.179Z,92.67
2018-06-20T02:38:01.183Z,93.34
2018-06-20T02:39:01.187Z,93.97
2018-06-20T02:40:10.651Z,94.83
2018-06-20T02:41:54.621Z,93.54
2018-06-20T02:42:54.580Z,91.52
2018-06-20T02:43:54.590Z,91.61
2018-06-20T02:44:54.590Z,90.99
2018-06-20T02:45:54.588Z,91.42
2018-06-20T02:46:54.617Z,89.26
2018-06-20T02:47:54.601Z,90.60
2018-06-20T02:48:54.608Z,89.93
2018-06-20T02:49:54.596Z,90.31
2018-06-20T02:50:54.599Z,90.03
2018-06-20T02:51:54.600Z,90.37
2018-06-20T02:52:54.601Z,91.33
2018-06-20T02:53:54.599Z,91.71
2018-06-20T02:54:54.608Z,92.96
2018-06-20T02:55:54.605Z,92.86
2018-06-20T02:56:54.615Z,92.96
2018-06-20T02:57:54.618Z,93.20
2018-06-20T02:58:54.615Z,92.29
2018-06-20T02:59:54.625Z,91.71
2018-06-20T03:00:54.623Z,91.81
2018-06-20T03:20:02.116Z,93.97
2018-06-20T03:21:02.102Z,94.83
2018-06-20T03:22:02.098Z,95.55
2018-06-20T03:23:02.095Z,92.86
2018-06-20T03:24:02.097Z,92.77
2018-06-20T03:25:02.094Z,92.86
2018-06-20T03:26:02.096Z,92.00
2018-06-20T03:27:02.093Z,90.31
2018-06-20T03:28:02.093Z,91.90
2018-06-20T03:29:02.094Z,92.10
2018-06-20T03:30:02.109Z,92.91
2018-06-20T03:31:02.090Z,93.59
2018-06-20T03:32:02.107Z,93.49
2018-06-20T03:33:02.111Z,93.39
2018-06-20T03:34:02.093Z,92.19
2018-06-20T03:35:02.100Z,92.19
2018-06-20T03:36:02.096Z,91.90
2018-06-20T03:37:02.106Z,90.46
2018-06-20T03:38:02.095Z,90.75
2018-06-20T03:39:02.100Z,89.07
2018-06-20T03:40:02.105Z,89.45
2018-06-20T03:41:02.099Z,91.47
2018-06-20T03:42:02.110Z,93.92
2018-06-20T03:43:02.106Z,94.69
2018-06-20T03:44:02.105Z,91.90
2018-06-20T03:45:02.117Z,90.56
2018-06-20T03:46:02.120Z,92.10
2018-06-20T03:47:02.123Z,91.23
2018-06-20T03:48:02.112Z,90.84
2018-06-20T03:49:02.129Z,91.76
2018-06-20T03:50:02.114Z,92.19
2018-06-20T03:51:10.767Z,90.37
2018-06-20T03:53:04.592Z,91.13
2018-06-20T03:53:55.532Z,90.37
2018-06-20T03:54:55.535Z,90.17
2018-06-20T03:55:55.536Z,90.56
2018-06-20T03:56:55.529Z,89.36
2018-06-20T03:59:16.615Z,88.59
2018-06-20T04:00:16.584Z,88.30
2018-06-20T04:01:16.582Z,88.10
2018-06-20T04:02:16.637Z,89.64
2018-06-20T04:03:16.585Z,89.89
2018-06-20T04:04:16.585Z,89.98
2018-06-20T04:05:16.591Z,90.56
2018-06-20T04:06:16.592Z,90.84
2018-06-20T04:07:16.597Z,90.27
2018-06-20T04:08:16.591Z,90.41
2018-06-20T04:09:16.602Z,87.67
2018-06-20T04:10:16.606Z,89.26
2018-06-20T04:11:16.614Z,88.87
2018-06-20T04:12:16.600Z,89.45
2018-06-20T04:13:16.605Z,90.03
2018-06-20T04:14:16.613Z,89.83
2018-06-20T04:15:16.624Z,91.04
2018-06-20T04:16:16.620Z,91.23
2018-06-20T04:17:16.616Z,91.04
2018-06-20T04:18:16.661Z,91.23
2018-06-20T04:19:16.616Z,91.23
2018-06-20T04:20:16.621Z,91.33
2018-06-20T04:21:16.618Z,89.26
2018-06-20T04:22:16.620Z,87.96
2018-06-20T04:23:16.629Z,87.86
2018-06-20T04:24:16.632Z,89.07
2018-06-20T04:25:16.637Z,88.34
2018-06-20T04:26:16.656Z,89.07
2018-06-20T04:27:16.646Z,89.16
2018-06-20T04:28:16.652Z,89.26
2018-06-20T04:29:16.661Z,89.36
2018-06-20T04:30:16.671Z,89.45
2018-06-20T04:31:16.657Z,88.73
2018-06-20T04:32:16.654Z,89.36
2018-06-20T04:33:16.666Z,89.21
2018-06-20T04:34:16.667Z,89.93
2018-06-20T04:35:16.688Z,88.92
2018-06-20T04:36:16.660Z,87.96
2018-06-20T04:38:37.722Z,87.52
2018-06-20T04:39:37.708Z,87.38
2018-06-20T04:40:37.714Z,87.48
2018-06-20T04:41:37.723Z,87.57
2018-06-20T04:42:37.751Z,87.62
2018-06-20T04:43:46.657Z,86.46
2018-06-20T04:45:31.404Z,84.39
2018-06-20T04:46:31.219Z,84.43
2018-06-20T04:47:40.398Z,84.43
2018-06-20T04:49:33.960Z,83.18
2018-06-20T04:50:24.830Z,83.80
2018-06-20T04:51:24.665Z,81.77
2018-06-20T04:52:24.611Z,81.72
2018-06-20T04:53:33.656Z,82.26
2018-06-20T04:55:18.348Z,82.45
2018-06-20T04:56:18.344Z,81.68
2018-06-20T04:57:18.337Z,81.87
2018-06-20T04:58:18.498Z,82.10
2018-06-20T04:59:18.272Z,79.93
2018-06-20T05:00:18.290Z,79.93
2018-06-20T05:01:18.312Z,78.81
2018-06-20T05:02:18.348Z,76.82
2018-06-20T05:03:18.328Z,76.05
2018-06-20T05:04:18.412Z,77.07
2018-06-20T05:05:18.317Z,77.65
2018-06-20T05:06:18.342Z,78.81
2018-06-20T05:07:27.894Z,79.44
2018-06-20T05:09:22.632Z,80.56
2018-06-20T05:10:12.673Z,80.41
2018-06-20T05:11:22.064Z,79.83
2018-06-20T05:13:06.278Z,79.93
2018-06-20T05:14:06.279Z,79.83
2018-06-20T05:15:06.282Z,78.81
2018-06-20T05:16:06.272Z,78.81
2018-06-20T05:17:09.702Z,78.81
2018-06-20T05:18:06.351Z,78.91
2018-06-20T05:19:06.532Z,78.67
2018-06-20T05:20:06.293Z,79.06
2018-06-20T05:21:06.319Z,78.77
2018-06-20T05:22:06.365Z,78.77
2018-06-20T05:23:06.370Z,78.77
2018-06-20T05:24:06.329Z,78.61
2018-06-20T05:25:06.364Z,78.61
2018-06-20T05:26:06.388Z,78.71
2018-06-20T05:27:06.447Z,78.23
2018-06-20T05:28:06.427Z,78.23
2018-06-20T05:29:06.465Z,77.94
2018-06-20T05:30:06.493Z,77.88
2018-06-20T05:31:06.476Z,77.59
2018-06-20T05:32:06.500Z,77.50
2018-06-20T05:33:06.533Z,76.53
2018-06-20T05:34:06.556Z,75.95
2018-06-20T05:35:06.612Z,75.22
2018-06-20T05:36:06.537Z,75.85
2018-06-20T05:37:06.552Z,75.70
2018-06-20T05:38:06.565Z,75.57
2018-06-20T05:39:06.622Z,75.51
2018-06-20T05:40:06.587Z,74.64
2018-06-20T05:41:06.664Z,74.83
2018-06-20T05:42:06.731Z,75.51
2018-06-20T05:43:06.678Z,75.84
2018-06-20T05:44:06.793Z,73.90
2018-06-20T05:45:06.798Z,73.22
2018-06-20T05:46:06.757Z,72.39
2018-06-20T05:47:06.771Z,72.42
2018-06-20T05:48:06.749Z,71.66
2018-06-20T05:49:06.827Z,71.84
2018-06-20T05:51:29.192Z,69.66
2018-06-20T05:52:28.947Z,70.08
2018-06-20T05:53:28.976Z,69.37
2018-06-20T05:54:29.045Z,68.91
2018-06-20T05:55:29.025Z,68.53
2018-06-20T05:56:29.042Z,68.15
2018-06-20T05:57:29.219Z,67.37
2018-06-20T05:58:29.039Z,67.21
2018-06-20T05:59:29.073Z,66.08
2018-06-20T06:00:29.120Z,65.40
2018-06-20T06:01:29.093Z,64.37
2018-06-20T06:02:29.107Z,63.59
2018-06-20T06:03:29.187Z,65.24
2018-06-20T06:04:29.191Z,65.05
2018-06-20T06:05:29.237Z,64.01
2018-06-20T06:06:29.275Z,63.26
2018-06-20T06:07:29.535Z,63.26
2018-06-20T06:08:29.272Z,63.72
2018-06-20T06:09:29.296Z,64.75
2018-06-20T06:10:29.347Z,63.07
2018-06-20T06:11:29.310Z,62.49
2018-06-20T06:12:29.445Z,61.74
2018-06-20T06:13:29.457Z,61.71
2018-06-20T06:14:29.525Z,62.95
2018-06-20T06:15:29.420Z,61.55
2018-06-20T06:16:29.424Z,61.97
2018-06-20T06:17:29.444Z,62.29
2018-06-20T06:18:29.551Z,61.25
2018-06-20T06:19:29.568Z,61.74
2018-06-20T06:20:29.555Z,61.35
2018-06-20T06:21:29.545Z,60.41
2018-06-20T06:22:29.570Z,58.82
2018-06-20T06:23:29.561Z,58.43
2018-06-20T06:24:29.624Z,58.98
2018-06-20T06:25:29.603Z,61.07
2018-06-20T06:26:29.611Z,65.24
2018-06-20T06:27:29.663Z,66.92
2018-06-20T06:28:29.656Z,67.46
2018-06-20T06:29:29.749Z,68.82
2018-06-20T06:30:29.833Z,68.76
2018-06-20T06:31:29.682Z,68.76
2018-06-20T06:32:38.597Z,67.60
2018-06-20T06:34:34.298Z,68.47
2018-06-20T06:35:32.223Z,69.59
2018-06-20T06:37:25.919Z,70.72
2018-06-20T06:38:25.456Z,70.95
2018-06-20T06:40:10.232Z,70.95
2018-06-20T06:41:10.020Z,71.04
2018-06-20T06:43:31.425Z,73.16
2018-06-20T06:44:40.036Z,73.20
2018-06-20T06:46:24.815Z,73.88
2018-06-20T06:47:33.465Z,73.63
2018-06-20T06:49:18.174Z,72.02
2018-06-20T06:50:17.919Z,71.88
2018-06-20T06:51:27.841Z,71.92
2018-06-20T06:53:11.571Z,71.92
2018-06-20T06:54:21.258Z,72.79
2018-06-20T06:56:05.950Z,71.78
2018-06-20T06:57:05.793Z,73.10
2018-06-20T06:58:05.776Z,73.24
2018-06-20T06:59:05.930Z,71.78
2018-06-20T07:00:05.809Z,71.40
2018-06-20T07:01:05.790Z,72.46
2018-06-20T07:02:05.822Z,73.53
2018-06-20T07:03:05.948Z,73.65
2018-06-20T07:04:05.843Z,74.81
2018-06-20T07:05:05.821Z,74.71
2018-06-20T07:06:05.863Z,75.13
2018-06-20T07:07:05.841Z,74.49
2018-06-20T07:08:05.846Z,74.21
2018-06-20T07:09:05.869Z,74.27
2018-06-20T07:10:05.892Z,73.97
2018-06-20T07:11:05.870Z,74.55
2018-06-20T07:12:05.873Z,74.69
2018-06-20T07:13:05.876Z,74.01
2018-06-20T07:14:05.895Z,73.33
2018-06-20T07:15:05.894Z,73.84
2018-06-20T07:16:05.898Z,75.74
2018-06-20T07:17:05.924Z,75.68
2018-06-20T07:18:05.952Z,76.03
2018-06-20T07:19:05.941Z,76.06
2018-06-20T07:20:05.976Z,75.78
2018-06-20T07:21:05.939Z,74.75
2018-06-20T07:22:05.941Z,73.88
2018-06-20T07:23:05.963Z,73.97
2018-06-20T07:24:05.964Z,74.85
2018-06-20T07:25:05.967Z,73.63
2018-06-20T07:26:05.999Z,73.88
2018-06-20T07:27:05.976Z,73.82
2018-06-20T07:28:06.005Z,73.63
2018-06-20T07:29:06.025Z,73.72
2018-06-20T07:30:14.776Z,73.72
2018-06-20T07:31:59.410Z,73.59
2018-06-20T07:32:59.430Z,74.46
2018-06-20T07:33:59.432Z,74.69
2018-06-20T07:34:59.434Z,73.43
2018-06-20T07:35:59.460Z,72.91
2018-06-20T07:37:09.142Z,74.32
2018-06-20T07:38:52.979Z,75.58
2018-06-20T07:39:52.884Z,74.55
2018-06-20T07:40:52.861Z,74.36
2018-06-20T07:41:52.899Z,74.36
2018-06-20T07:42:53.012Z,74.85
2018-06-20T07:43:52.904Z,74.40
2018-06-20T07:44:52.896Z,73.78
2018-06-20T07:45:52.928Z,72.95
2018-06-20T07:47:00.129Z,73.53
2018-06-20T07:48:46.384Z,73.82
2018-06-20T07:49:46.328Z,73.30
2018-06-20T07:50:46.337Z,73.88
2018-06-20T07:51:46.360Z,73.97
2018-06-20T07:52:46.513Z,73.49
2018-06-20T07:53:46.340Z,74.27
2018-06-20T07:54:46.354Z,73.36
2018-06-20T07:55:46.369Z,73.97
2018-06-20T07:56:46.375Z,73.30
2018-06-20T07:57:46.391Z,73.43
2018-06-20T07:58:46.377Z,74.69
2018-06-20T07:59:46.384Z,74.11
2018-06-20T08:00:46.472Z,73.91
2018-06-20T08:01:46.425Z,73.04
2018-06-20T08:02:46.402Z,72.42
2018-06-20T08:03:46.440Z,72.81
2018-06-20T08:04:46.428Z,74.42
2018-06-20T08:05:46.438Z,74.36
2018-06-20T08:06:46.463Z,73.59
2018-06-20T08:07:46.441Z,73.49
2018-06-20T08:08:46.474Z,73.68
2018-06-20T08:09:46.481Z,73.01
2018-06-20T08:10:46.473Z,72.75
2018-06-20T08:11:46.508Z,71.94
2018-06-20T08:12:46.467Z,72.91
2018-06-20T08:13:46.503Z,73.33
2018-06-20T08:14:46.510Z,73.14
2018-06-20T08:15:46.536Z,72.46
2018-06-20T08:16:46.496Z,72.75
2018-06-20T08:17:46.525Z,72.27
2018-06-20T08:20:07.675Z,71.69
2018-06-20T08:21:16.322Z,72.17
2018-06-20T08:23:01.002Z,73.63
2018-06-20T08:24:08.677Z,73.82
2018-06-20T08:26:03.585Z,73.66
2018-06-20T08:27:03.224Z,72.60
2018-06-20T08:28:48.067Z,72.08
2018-06-20T08:29:48.010Z,71.88
2018-06-20T08:30:48.035Z,72.08
2018-06-20T08:31:48.048Z,72.56
2018-06-20T08:32:48.055Z,72.69
2018-06-20T08:33:48.128Z,72.50
2018-06-20T08:34:48.058Z,71.72
2018-06-20T08:35:48.047Z,73.47
2018-06-20T08:36:48.074Z,71.34
2018-06-20T08:37:48.078Z,72.02
2018-06-20T08:38:48.100Z,71.88
2018-06-20T08:39:48.073Z,72.89
2018-06-20T08:40:48.078Z,71.72
2018-06-20T08:41:48.111Z,71.34
2018-06-20T08:42:48.134Z,72.21
2018-06-20T08:43:48.133Z,71.24
2018-06-20T08:44:48.127Z,71.14
2018-06-20T08:45:48.134Z,70.89
2018-06-20T08:46:48.151Z,71.04
2018-06-20T08:47:48.159Z,71.18
2018-06-20T08:48:48.152Z,70.66
2018-06-20T08:49:48.171Z,72.05
2018-06-20T08:50:48.153Z,71.18
2018-06-20T08:51:48.211Z,71.37
2018-06-20T08:52:48.161Z,70.89
2018-06-20T08:53:48.173Z,72.63
2018-06-20T08:54:48.180Z,71.95
2018-06-20T08:55:48.184Z,70.70
2018-06-20T08:56:48.194Z,69.73
2018-06-20T08:57:56.912Z,70.21
2018-06-20T08:59:42.703Z,70.60
2018-06-20T09:00:42.678Z,71.37
2018-06-20T09:01:42.682Z,71.22
2018-06-20T09:02:42.720Z,69.92
2018-06-20T09:03:42.725Z,70.63
2018-06-20T09:04:42.847Z,69.18
2018-06-20T09:05:42.706Z,69.34
2018-06-20T09:06:42.713Z,69.53
2018-06-20T09:07:42.731Z,69.43
2018-06-20T09:08:42.745Z,69.43
2018-06-20T09:09:42.756Z,70.21
2018-06-20T09:10:42.750Z,71.47
2018-06-20T09:11:42.754Z,70.34
2018-06-20T09:12:42.778Z,69.27
2018-06-20T09:15:13.983Z,69.67
2018-06-20T09:16:13.609Z,69.67
2018-06-20T09:17:58.288Z,69.31
2018-06-20T09:18:58.247Z,67.66
2018-06-20T09:19:58.273Z,67.53
2018-06-20T09:20:58.312Z,67.53
2018-06-20T09:21:58.292Z,68.50
2018-06-20T09:22:58.268Z,70.05
2018-06-20T09:23:58.297Z,70.05
2018-06-20T09:24:58.282Z,70.57
2018-06-20T09:25:58.287Z,68.82
2018-06-20T09:26:58.365Z,68.05
2018-06-20T09:27:58.308Z,68.02
2018-06-20T09:28:58.309Z,68.50
2018-06-20T09:29:58.325Z,68.66
2018-06-20T09:30:58.370Z,69.18
2018-06-20T09:31:58.329Z,68.73
2018-06-20T09:32:58.340Z,68.82
2018-06-20T09:33:58.364Z,68.05
2018-06-20T09:34:58.353Z,67.27
2018-06-20T09:35:58.364Z,68.21
2018-06-20T09:36:58.372Z,68.34
2018-06-20T09:37:58.379Z,66.75
2018-06-20T09:38:58.413Z,66.75
2018-06-20T09:39:58.428Z,66.75
2018-06-20T09:40:58.393Z,66.20
2018-06-20T09:41:58.430Z,66.50
2018-06-20T09:42:58.429Z,66.40
2018-06-20T09:43:58.486Z,65.92
2018-06-20T09:44:58.446Z,66.60
2018-06-20T09:45:58.432Z,68.15
2018-06-20T09:46:58.449Z,68.54
2018-06-20T09:47:58.476Z,66.24
2018-06-20T09:48:58.465Z,65.95
2018-06-20T09:49:58.476Z,66.82
2018-06-20T09:50:58.481Z,65.75
2018-06-20T09:51:58.487Z,66.34
2018-06-20T09:52:58.524Z,65.98
2018-06-20T09:53:58.503Z,66.24
2018-06-20T09:54:58.512Z,66.44
2018-06-20T09:55:58.586Z,66.99
2018-06-20T09:56:58.525Z,66.89
2018-06-20T09:57:58.604Z,65.95
2018-06-20T09:58:58.567Z,65.75
2018-06-20T09:59:58.543Z,67.40
2018-06-20T10:00:58.553Z,65.89
2018-06-20T10:01:58.566Z,65.24
2018-06-20T10:02:58.579Z,62.98
2018-06-20T10:03:58.606Z,63.65
2018-06-20T10:04:58.593Z,63.17
2018-06-20T10:05:58.631Z,64.62
2018-06-20T10:06:58.610Z,64.88
2018-06-20T10:07:58.627Z,65.85
2018-06-20T10:08:58.639Z,62.46
2018-06-20T10:09:58.620Z,63.72
2018-06-20T10:10:58.675Z,64.30
2018-06-20T10:11:58.635Z,63.85
2018-06-20T10:12:58.697Z,62.39
2018-06-20T10:13:58.685Z,63.07
2018-06-20T10:14:58.681Z,63.75
2018-06-20T10:15:58.698Z,63.20
2018-06-20T10:16:58.690Z,63.65
2018-06-20T10:17:58.734Z,64.53
2018-06-20T10:18:58.698Z,64.65
2018-06-20T10:19:58.701Z,62.32
2018-06-20T10:20:58.727Z,64.17
2018-06-20T10:21:58.719Z,63.39
2018-06-20T10:22:58.738Z,62.62
2018-06-20T10:24:07.440Z,63.29
2018-06-20T10:25:52.424Z,62.04
2018-06-20T10:26:52.418Z,62.49
2018-06-20T10:27:52.441Z,62.13
2018-06-20T10:28:52.513Z,62.13
2018-06-20T10:30:01.203Z,61.35
2018-06-20T10:31:46.872Z,62.62
2018-06-20T10:32:46.863Z,61.74
2018-06-20T10:33:46.915Z,60.77
2018-06-20T10:34:46.904Z,60.68
2018-06-20T10:35:46.966Z,60.68
2018-06-20T10:36:46.915Z,61.84
2018-06-20T10:37:46.918Z,63.39
2018-06-20T10:38:46.925Z,63.32
2018-06-20T10:39:46.969Z,63.59
2018-06-20T10:40:46.953Z,64.36
2018-06-20T10:41:46.930Z,64.95
2018-06-20T10:42:46.936Z,64.36
2018-06-20T10:43:46.970Z,62.81
2018-06-20T10:44:46.956Z,62.52
2018-06-20T10:45:46.956Z,61.65
2018-06-20T10:46:46.990Z,63.01
2018-06-20T10:47:46.997Z,62.91
2018-06-20T10:48:47.010Z,63.10
2018-06-20T10:49:46.993Z,63.20
2018-06-20T10:50:47.002Z,62.62
2018-06-20T10:51:47.065Z,62.26
2018-06-20T10:52:47.018Z,62.74
2018-06-20T10:53:47.025Z,64.88
2018-06-20T10:54:57.489Z,61.51
2018-06-20T10:56:40.533Z,58.59
2018-06-20T10:57:40.497Z,61.02
2018-06-20T10:58:40.518Z,60.25
2018-06-20T10:59:40.620Z,58.59
2018-06-20T11:00:49.297Z,58.82
2018-06-20T11:01:40.544Z,57.82
2018-06-20T11:02:40.550Z,57.43
2018-06-20T11:03:40.579Z,59.08
2018-06-20T11:04:40.604Z,58.21
2018-06-20T11:05:48.272Z,57.53
2018-06-20T11:07:34.229Z,58.59
2018-06-20T11:08:34.055Z,60.41
2018-06-20T11:09:34.069Z,60.22
2018-06-20T11:10:34.026Z,58.50
2018-06-20T11:11:34.020Z,59.08
2018-06-20T11:12:34.068Z,59.08
2018-06-20T11:13:34.039Z,57.72
2018-06-20T11:14:34.077Z,58.40
2018-06-20T11:15:34.085Z,59.08
2018-06-20T11:16:34.066Z,59.44
2018-06-20T11:17:34.081Z,59.74
2018-06-20T11:18:34.077Z,61.00
2018-06-20T11:19:34.106Z,60.71
2018-06-20T11:20:34.159Z,61.51
2018-06-20T11:21:34.101Z,62.65
2018-06-20T11:22:34.148Z,61.77
2018-06-20T11:23:34.117Z,61.22
2018-06-20T11:24:34.146Z,61.38
2018-06-20T11:25:34.161Z,61.22
2018-06-20T11:26:34.155Z,61.90
2018-06-20T11:27:34.180Z,62.45
2018-06-20T11:28:34.191Z,62.65
2018-06-20T11:29:34.194Z,62.07
2018-06-20T11:30:34.196Z,61.90
2018-06-20T11:31:34.214Z,62.29
2018-06-20T11:32:34.201Z,62.16
2018-06-20T11:33:34.381Z,62.26
2018-06-20T11:34:34.236Z,62.07
2018-06-20T11:35:34.333Z,61.61
2018-06-20T11:36:34.265Z,60.86
2018-06-20T11:37:34.235Z,61.12
2018-06-20T11:38:34.254Z,61.87
2018-06-20T11:39:34.360Z,61.97
2018-06-20T11:40:34.269Z,61.41
2018-06-20T11:41:34.296Z,60.96
2018-06-20T11:42:34.280Z,60.74
2018-06-20T11:43:34.312Z,61.29
2018-06-20T11:44:34.312Z,61.02
2018-06-20T11:45:34.410Z,61.68
2018-06-20T11:46:34.354Z,61.97
2018-06-20T11:47:34.334Z,62.04
2018-06-20T11:48:34.370Z,62.35
2018-06-20T11:49:34.361Z,62.55
2018-06-20T11:50:34.380Z,61.80
2018-06-20T11:51:34.377Z,60.25
2018-06-20T11:52:34.369Z,59.31
2018-06-20T11:53:34.381Z,59.67
2018-06-20T11:54:34.407Z,60.83
2018-06-20T11:55:34.396Z,61.77
2018-06-20T11:56:34.465Z,61.68
2018-06-20T11:57:34.420Z,60.83
2018-06-20T11:58:34.449Z,61.51
2018-06-20T11:59:43.148Z,61.22
2018-06-20T12:01:27.937Z,60.25
2018-06-20T12:02:27.876Z,60.44
2018-06-20T12:03:27.873Z,60.05
2018-06-20T12:04:27.932Z,60.67
2018-06-20T12:05:27.887Z,58.33
2018-06-20T12:06:37.534Z,59.28
2018-06-20T12:08:22.443Z,60.15
2018-06-20T12:09:22.355Z,59.69
2018-06-20T12:10:22.317Z,59.21
2018-06-20T12:11:22.357Z,57.39
2018-06-20T12:12:22.334Z,57.59
2018-06-20T12:13:22.322Z,58.56
2018-06-20T12:14:22.369Z,57.68
2018-06-20T12:15:22.340Z,58.33
2018-06-20T12:16:22.352Z,59.38
2018-06-20T12:17:22.366Z,59.76
2018-06-20T12:18:22.370Z,58.07
2018-06-20T12:19:22.404Z,57.59
2018-06-20T12:20:22.385Z,58.39
2018-06-20T12:21:22.405Z,59.27
2018-06-20T12:22:22.403Z,57.45
2018-06-20T12:23:22.414Z,56.25
2018-06-20T12:24:22.435Z,57.51
2018-06-20T12:25:23.428Z,59.07
2018-06-20T12:26:22.520Z,56.61
2018-06-20T12:27:22.465Z,57.39
2018-06-20T12:28:22.503Z,57.87
2018-06-20T12:29:22.470Z,57.97
2018-06-20T12:30:22.518Z,58.46
2018-06-20T12:31:22.519Z,58.26
2018-06-20T12:32:22.495Z,58.69
2018-06-20T12:33:22.540Z,59.17
2018-06-20T12:34:22.538Z,58.69
2018-06-20T12:35:22.523Z,56.81
2018-06-20T12:36:22.569Z,57.87
2018-06-20T12:37:22.605Z,58.62
2018-06-20T12:38:22.580Z,58.23
2018-06-20T12:39:22.609Z,58.72
2018-06-20T12:40:22.562Z,58.36
2018-06-20T12:41:22.590Z,58.53
2018-06-20T12:42:22.608Z,58.53
2018-06-20T12:43:22.614Z,57.97
2018-06-20T12:44:22.596Z,57.00
2018-06-20T12:45:22.625Z,57.95
2018-06-20T12:46:22.633Z,57.78
2018-06-20T12:47:22.633Z,58.33
2018-06-20T12:48:22.639Z,58.65
2018-06-20T12:49:22.663Z,58.14
2018-06-20T12:50:22.671Z,56.81
2018-06-20T12:51:22.668Z,57.20
2018-06-20T12:52:22.721Z,57.78
2018-06-20T12:53:22.688Z,57.87
2018-06-20T12:54:22.686Z,58.36
2018-06-20T12:55:22.703Z,58.26
2018-06-20T12:56:22.715Z,56.74
2018-06-20T12:57:22.723Z,57.32
2018-06-20T12:58:22.792Z,58.29
2018-06-20T12:59:22.729Z,57.59
2018-06-20T13:00:22.742Z,57.49
2018-06-20T13:01:22.761Z,58.43
2018-06-20T13:02:22.758Z,57.36
2018-06-20T13:03:22.763Z,57.46
2018-06-20T13:04:22.780Z,56.41
2018-06-20T13:05:22.791Z,57.39
2018-06-20T13:06:22.798Z,57.68
2018-06-20T13:07:22.805Z,57.78
2018-06-20T13:08:22.813Z,56.45
2018-06-20T13:09:22.824Z,57.51
2018-06-20T13:10:22.834Z,57.22
2018-06-20T13:11:32.548Z,57.22
2018-06-20T13:13:25.349Z,55.60
2018-06-20T13:14:25.009Z,54.69
2018-06-20T13:16:18.860Z,55.08
2018-06-20T13:17:18.445Z,55.60
2018-06-20T13:19:04.133Z,55.37
2018-06-20T13:20:04.135Z,56.05
2018-06-20T13:21:04.147Z,55.69
2018-06-20T13:22:12.956Z,55.01
2018-06-20T13:24:06.716Z,54.62
